• Join FlightAware (Why Join?)
  • Login
  • US Flag 
Gobble Gobble! 
06:03AM EST


 

Airport Tracker/Info


-or-


 

Live Flight TrackerFlight Track Log ✈ NKS851 ✈ 13-May-2013 ✈ KDTW - KMYR

Flight Track Log - Related Links

Times and Time Zones

All times are in EDT time to prevent confusion due to time zone crossing. See the NKS851 flight status page for this flight to view local times or setup timezone preferences in your user account.

Time Position Orientation Groundspeed Altitude Reporting Facility
EDT Latitude Longitude Course Direction KTS MPH feet Rate Location/Type
01:02PM 42.3690 -83.1930 36° Northeast 269 310 8,400  Level FlightAware
01:02PM 42.3740 -83.1660 76° East 289 333 9,400 3,780 Climbing FlightAware
01:02PM 42.3680 -83.1330 104° East 301 346 10,300 1,800 Climbing FlightAware
01:03PM 42.3380 -83.0710 123° Southeast 352 405 11,200 1,800 Climbing FlightAware
01:03PM 42.2980 -82.9800 121° Southeast 364 419 12,700 1,320 Climbing FlightAware
01:04PM 42.2690 -82.9100 119° Southeast 369 425 13,000 1,800 Climbing FlightAware
01:05PM 42.2230 -82.8010 120° Southeast 385 443 15,300 2,700 Climbing FlightAware
01:06PM 42.1900 -82.7230 120° Southeast 392 451 16,900 2,400 Climbing FlightAware
01:06PM 42.1440 -82.6150 120° Southeast 407 468 18,700 2,160 Climbing FlightAware
01:07PM 42.0920 -82.4920 120° Southeast 425 489 20,500 1,800 Climbing FlightAware
01:07PM 42.0850 -82.4670 111° Southeast 425 489 20,800 2,760 Climbing FlightAware
01:08PM 42.0630 -82.3130 101° East 430 495 22,800 2,460 Climbing FlightAware
01:09PM 42.0420 -82.1710 101° East 441 507 24,300 1,620 Climbing FlightAware
01:10PM 42.0120 -82.0680 111° Southeast 469 540 25,300 1,380 Climbing FlightAware
01:10PM 41.9430 -81.9880 139° Southeast 493 567 26,200 1,380 Climbing FlightAware
01:11PM 41.8610 -81.9110 145° Southeast 500 575 27,300 1,320 Climbing FlightAware
01:12PM 41.7820 -81.8350 144° Southeast 510 587 28,100 1,200 Climbing FlightAware
01:12PM 41.6960 -81.7530 145° Southeast 518 596 29,000 1,260 Climbing FlightAware
01:13PM 41.6180 -81.6800 145° Southeast 522 601 29,900 1,260 Climbing FlightAware
01:14PM 41.5320 -81.6190 152° Southeast 527 606 30,700 1,260 Climbing FlightAware
01:14PM 41.4320 -81.5650 158° South 527 606 31,700 1,320 Climbing FlightAware
01:15PM 41.3390 -81.5150 158° South 527 606 32,600 1,320 Climbing FlightAware
01:16PM 41.2390 -81.4610 158° South 525 604 33,600 1,260 Climbing FlightAware
01:17PM 41.1480 -81.4120 158° South 521 600 34,400 1,320 Climbing FlightAware
01:17PM 41.0590 -81.3650 158° South 515 593 35,400 1,320 Climbing FlightAware
01:18PM 40.9650 -81.3150 158° South 508 585 36,300 1,080 Climbing FlightAware
01:19PM 40.8770 -81.2680 158° South 498 573 37,000 480 Climbing FlightAware
01:19PM 40.7770 -81.2150 158° South 497 572 37,000  Level FlightAware
01:20PM 40.6940 -81.1710 158° South 498 573 37,000  Level FlightAware
01:21PM 40.6290 -81.1370 158° South 499 574 37,000  Level FlightAware
01:21PM 40.5430 -81.0910 158° South 499 574 37,000  Level FlightAware
01:22PM 40.4580 -81.0470 159° South 498 573 37,000  Level FlightAware
01:23PM 40.3600 -80.9960 158° South 499 574 37,000  Level FlightAware
01:23PM 40.2780 -80.9530 158° South 498 573 37,000  Level FlightAware
01:24PM 40.1780 -80.9010 158° South 500 575 37,000  Level FlightAware
01:25PM 40.0930 -80.8570 158° South 500 575 37,000  Level FlightAware
01:25PM 40.0070 -80.8110 158° South 503 579 37,000  Level FlightAware
01:26PM 39.9260 -80.7570 153° Southeast 502 578 37,000  Level FlightAware
01:27PM 39.8330 -80.6960 153° Southeast 500 575 37,000  Level FlightAware
01:27PM 39.7500 -80.6410 153° Southeast 500 575 37,000  Level FlightAware
01:28PM 39.6570 -80.5800 153° Southeast 499 574 37,000  Level FlightAware
01:29PM 39.5730 -80.5250 153° Southeast 498 573 37,000  Level FlightAware
01:30PM 39.4860 -80.4690 154° Southeast 497 572 37,000  Level FlightAware
01:30PM 39.4020 -80.4140 153° Southeast 495 570 37,000  Level FlightAware
01:31PM 39.3270 -80.3650 153° Southeast 493 567 37,000  Level FlightAware
01:32PM 39.2390 -80.3080 153° Southeast 493 567 37,000  Level FlightAware
01:32PM 39.1630 -80.2590 153° Southeast 491 565 37,000  Level FlightAware
01:33PM 39.0580 -80.1920 154° Southeast 492 566 37,000  Level FlightAware
01:34PM 38.9750 -80.1390 154° Southeast 492 566 37,000  Level FlightAware
01:35PM 38.8870 -80.0870 155° Southeast 487 560 37,000  Level FlightAware
01:35PM 38.7990 -80.0480 161° South 486 559 37,000  Level FlightAware
01:36PM 38.7010 -80.0040 161° South 483 556 37,000  Level FlightAware
01:37PM 38.6250 -79.9690 160° South 482 555 37,000  Level FlightAware
01:37PM 38.5190 -79.9220 161° South 480 552 37,000  Level FlightAware
01:38PM 38.4350 -79.8840 160° South 480 552 37,000  Level FlightAware
01:39PM 38.3520 -79.8470 161° South 482 555 37,000  Level FlightAware
01:39PM 38.2660 -79.8090 161° South 483 556 37,000 -180 Level FlightAware
01:40PM 38.1810 -79.7720 161° South 483 556 36,800 -420 Descending FlightAware
01:41PM 38.0620 -79.7180 160° South 477 549 36,300 -360 Descending FlightAware
01:42PM 37.9920 -79.6860 160° South 477 549 36,300 -780 Level FlightAware
01:43PM 37.8480 -79.6250 162° South 476 548 35,000 -840 Descending FlightAware
01:43PM 37.7850 -79.5960 160° South 476 548 35,000  Level FlightAware
01:44PM 37.6750 -79.5490 161° South 474 545 35,000  Level FlightAware
01:45PM 37.5980 -79.5140 160° South 474 545 35,000  Level FlightAware
01:45PM 37.5070 -79.4760 162° South 474 545 35,000  Level FlightAware
01:46PM 37.4120 -79.4350 161° South 472 543 35,000  Level FlightAware
01:47PM 37.3320 -79.4010 161° South 470 541 35,000  Level FlightAware
01:48PM 37.2420 -79.3620 161° South 470 541 35,000  Level FlightAware
01:48PM 37.1600 -79.3270 161° South 471 542 35,000  Level FlightAware
01:49PM 37.0740 -79.2970 164° South 461 531 35,000  Level FlightAware
01:50PM 36.9750 -79.2870 175° South 457 526 35,000  Level FlightAware
01:50PM 36.8960 -79.2770 174° South 455 524 35,000  Level FlightAware
01:51PM 36.8080 -79.2670 175° South 450 518 35,000  Level FlightAware
01:52PM 36.7210 -79.2580 175° South 450 518 35,000  Level FlightAware
01:52PM 36.6390 -79.2480 174° South 449 517 35,000  Level FlightAware
01:53PM 36.5660 -79.2400 175° South 448 516 35,000  Level FlightAware
01:54PM 36.4610 -79.2280 175° South 447 514 35,000  Level FlightAware
01:55PM 36.3760 -79.2190 175° South 447 514 35,000  Level FlightAware
01:55PM 36.3050 -79.2110 175° South 439 505 35,000 -180 Level FlightAware
01:56PM 36.2120 -79.2010 175° South 451 519 34,800 -540 Descending FlightAware
01:57PM 36.1050 -79.1890 175° South 447 514 34,200 -540 Descending FlightAware
01:57PM 36.0250 -79.1800 175° South 451 519 34,000 -180 Descending FlightAware
01:58PM 35.9390 -79.1710 175° South 451 519 34,000 -480 Level FlightAware
01:59PM 35.8500 -79.1610 175° South 448 516 33,400 -900 Descending FlightAware
01:59PM 35.7730 -79.1520 175° South 450 518 32,800 -1,020 Descending FlightAware
02:00PM 35.6830 -79.1420 175° South 445 512 32,100 -960 Descending FlightAware
02:01PM 35.5940 -79.1320 175° South 432 497 31,400 -1,020 Descending FlightAware
02:01PM 35.5220 -79.1250 175° South 420 483 30,800 -960 Descending FlightAware
02:02PM 35.4300 -79.1150 175° South 406 467 30,100 -960 Descending FlightAware
02:03PM 35.3520 -79.1060 175° South 404 465 29,400 -1,080 Descending FlightAware
02:04PM 35.2660 -79.0970 175° South 405 466 28,600 -1,440 Descending FlightAware
02:04PM 35.2020 -79.0900 175° South 402 463 27,500 -1,800 Descending FlightAware
02:05PM 35.1220 -79.0810 175° South 386 444 26,200 -1,920 Descending FlightAware
02:06PM 35.0390 -79.0720 175° South 384 442 24,700 -1,560 Descending FlightAware
02:06PM 34.9680 -79.0650 175° South 374 430 24,000 -780 Descending FlightAware
02:07PM 34.8960 -79.0570 175° South 388 447 23,600 -1,740 Descending FlightAware
02:08PM 34.8000 -79.0460 175° South 388 447 21,300 -1,380 Descending FlightAware
02:09PM 34.7240 -79.0360 174° South 388 447 21,300  Level FlightAware
02:10PM 34.6630 -79.0280 174° South 388 447 21,300  Level FlightAware
02:10PM 34.6030 -79.0200 174° South 388 447 21,300 -4,020 Level FlightAware
02:11PM 34.5000 -79.0150 178° South 338 389 15,300 -4,560 Descending FlightAware
02:12PM 34.4380 -79.0080 175° South 329 379 14,100 -1,800 Descending FlightAware
02:13PM 34.3560 -78.9960 173° South 324 373 12,500 -1,200 Descending FlightAware
02:14PM 34.3210 -78.9840 164° South 320 368 12,000 -840 Descending FlightAware
02:14PM 34.3210 -78.9850 270° West 315 362 11,200 -2,100 Descending FlightAware
02:15PM 34.1520 -78.9320 165° South 305 351 9,100 -2,400 Descending FlightAware
02:15PM 34.1460 -78.9300 165° South 305 351 9,000 -1,440 Descending FlightAware
02:16PM 34.1130 -78.9210 167° South 299 344 8,400 -1,440 Descending FlightAware
02:16PM 34.0790 -78.9120 168° South 295 339 7,800 -1,560 Descending FlightAware
02:16PM 34.0400 -78.9020 168° South 289 333 7,000 -1,020 Descending FlightAware
02:17PM 33.9980 -78.8910 168° South 295 339 6,800 -600 Descending FlightAware
02:17PM 33.9650 -78.8830 169° South 286 329 6,500 -1,320 Descending FlightAware
02:18PM 33.9280 -78.8730 167° South 282 325 5,600 -1,920 Descending FlightAware
02:18PM 33.9240 -78.8710 157° South 282 325 5,400 -1,200 Descending FlightAware
02:19PM 33.8700 -78.8556 157° South 293 337 4,800 -960 Descending Jacksonville Center
02:20PM 33.8022 -78.8314 163° South 275 316 3,900 -660 Descending Jacksonville Center
02:25PM 33.6280 -78.9150 163° South 126 145 700 -600 Descending FlightAware
02:26PM 33.6470 -78.9200 348° North 127 146 300 -660 Descending FlightAware
02:26PM 33.6580 -78.9230 347° North 127 146 100 -600 Descending FlightAware
02:29PM 33.6667 -78.9167 171° South  Level FlightAware Approximate
02:30PM 33.6797 -78.9283 171° South  Level Estimated
02:31PM 33.6797 -78.9283 171° South  Level Estimated
02:32PM 33.6797 -78.9283 171° South  Level Estimated
02:33PM 33.6797 -78.9283 171° South  Level Estimated